Chicago O'Hare International Airport
KORD : now visible

Airfield :











YOU CAN JOIN US ON...

 
LOGIN :

Register | Disclaimer

   EN    FR    IT 

 









Legend :    VFR   Marginal VFR   IFR   Intensive IFR   Very Intensive IFR
Visi :
Ceiling :
>= 8 km
>= 3000ft
5 to 8 km
1000 to 3000 ft
1500m to 5 km
500 to 1000 ft
800 to 1500m
200 to 500 ft
< 800m
< 200 ft
Symbols :   Thunderstorms  Fog  Heavy snow  Heavy precipitations  Wind > 20 kt







- Airport Elevation : 672 ft
- IATA code : ORD


KORD - Chicago O'Hare International

CURRENT METAR :
  • 192351Z 12006KT 10SM FEW030 OVC250 M01/M06 A3045 RMK AO2 SLP322 4/002 T10111061 10017 21022 58011

EXPIRED METARs :
  • 192251Z 07007KT 10SM FEW032 BKN250 M01/M06 A3046 RMK AO2 SLP326 T10111061
  • 192151Z 10006KT 10SM SCT034 BKN250 01/M07 A3047 RMK AO2 SLP330 T00061072

TAF KORD
Valid from the 20 at 00:00 until the 21 at 06:00 UTC


192335Z 2000/2106 12007KT P6SM SCT030 BKN200
FM200900 10012KT 1 1/2SM -SN BR BKN015 OVC030
FM201300 11013KT 1SM -FZDZSN BR OVC009
FM201600 12013G20KT 2SM -FZDZ BR OVC008
FM201800 14012KT 4SM -DZ BR OVC006
FM202300 22008KT 6SM BR OVC006
FM210400 24015G22KT P6SM SCT006 BKN010
KZAU FIR / North America



MET'MAP, your aeronautical weather chart ! - Copyright ORBIFLY December 2007 - Disclaimer

ORBIFLY MET'MAP TEAM :

Programming & Development : Alexandra Zaïnal
Concept & Development : Baudouin d'Aumeries
Co-Development & Prog : Marc-Olivier Méhu
Technical & hardware support : Manuel Goepfert

Contact : metmap@orbifly.com




SOURCES & CREDITS :

   NOAA       Earth
Advisory